sensor_id;sensor_type;location;lat;lon;timestamp;temperature;humidity
1468;DHT22;727;48.892;9.544;2022-07-10T00:02:27;17.50;99.90
1468;DHT22;727;48.892;9.544;2022-07-10T00:04:54;17.50;99.90
1468;DHT22;727;48.892;9.544;2022-07-10T00:07:21;17.50;99.90
1468;DHT22;727;48.892;9.544;2022-07-10T00:09:48;17.40;99.90
1468;DHT22;727;48.892;9.544;2022-07-10T00:12:14;17.20;99.90
1468;DHT22;727;48.892;9.544;2022-07-10T00:14:41;17.00;99.90
1468;DHT22;727;48.892;9.544;2022-07-10T00:17:08;16.90;99.90
1468;DHT22;727;48.892;9.544;2022-07-10T00:19:36;16.80;99.90
1468;DHT22;727;48.892;9.544;2022-07-10T00:22:03;16.60;99.90
1468;DHT22;727;48.892;9.544;2022-07-10T00:24:30;16.50;99.90
1468;DHT22;727;48.892;9.544;2022-07-10T00:26:57;16.60;99.90
1468;DHT22;727;48.892;9.544;2022-07-10T00:29:23;16.50;99.90
1468;DHT22;727;48.892;9.544;2022-07-10T00:31:50;16.50;99.90
1468;DHT22;727;48.892;9.544;2022-07-10T00:34:17;16.40;99.90
1468;DHT22;727;48.892;9.544;2022-07-10T00:36:45;16.40;99.90
1468;DHT22;727;48.892;9.544;2022-07-10T00:39:12;16.30;99.90
1468;DHT22;727;48.892;9.544;2022-07-10T00:41:39;16.20;99.90
1468;DHT22;727;48.892;9.544;2022-07-10T00:44:05;16.20;99.90
1468;DHT22;727;48.892;9.544;2022-07-10T00:46:32;16.10;99.90
1468;DHT22;727;48.892;9.544;2022-07-10T00:48:59;16.00;99.90
1468;DHT22;727;48.892;9.544;2022-07-10T00:51:27;15.90;99.90
1468;DHT22;727;48.892;9.544;2022-07-10T00:53:56;15.90;99.90
1468;DHT22;727;48.892;9.544;2022-07-10T00:56:25;15.80;99.90
1468;DHT22;727;48.892;9.544;2022-07-10T00:58:52;15.70;99.90
1468;DHT22;727;48.892;9.544;2022-07-10T01:01:19;15.70;99.90
1468;DHT22;727;48.892;9.544;2022-07-10T01:03:48;15.70;99.90
1468;DHT22;727;48.892;9.544;2022-07-10T01:06:15;15.60;99.90
1468;DHT22;727;48.892;9.544;2022-07-10T01:08:42;15.60;99.90
1468;DHT22;727;48.892;9.544;2022-07-10T01:11:11;15.50;99.90
1468;DHT22;727;48.892;9.544;2022-07-10T01:13:39;15.50;99.90
1468;DHT22;727;48.892;9.544;2022-07-10T01:16:06;15.40;99.90
1468;DHT22;727;48.892;9.544;2022-07-10T01:18:33;15.40;99.90
1468;DHT22;727;48.892;9.544;2022-07-10T01:21:01;15.40;99.90
1468;DHT22;727;48.892;9.544;2022-07-10T01:23:27;15.30;99.90
1468;DHT22;727;48.892;9.544;2022-07-10T01:25:54;15.30;99.90
1468;DHT22;727;48.892;9.544;2022-07-10T01:28:21;15.20;99.90
1468;DHT22;727;48.892;9.544;2022-07-10T01:30:48;15.20;99.90
1468;DHT22;727;48.892;9.544;2022-07-10T01:33:15;15.10;99.90
1468;DHT22;727;48.892;9.544;2022-07-10T01:35:41;15.00;99.90
1468;DHT22;727;48.892;9.544;2022-07-10T01:38:10;15.00;99.90
1468;DHT22;727;48.892;9.544;2022-07-10T01:40:36;15.00;99.90
1468;DHT22;727;48.892;9.544;2022-07-10T01:43:03;14.90;99.90
1468;DHT22;727;48.892;9.544;2022-07-10T01:45:30;14.90;99.90
1468;DHT22;727;48.892;9.544;2022-07-10T01:47:56;14.90;99.90
1468;DHT22;727;48.892;9.544;2022-07-10T01:50:23;14.80;99.90
1468;DHT22;727;48.892;9.544;2022-07-10T01:52:50;14.70;99.90
1468;DHT22;727;48.892;9.544;2022-07-10T01:55:18;14.70;99.90
1468;DHT22;727;48.892;9.544;2022-07-10T01:57:44;14.70;99.90
1468;DHT22;727;48.892;9.544;2022-07-10T02:00:12;14.60;99.90
1468;DHT22;727;48.892;9.544;2022-07-10T02:02:38;14.60;99.90
1468;DHT22;727;48.892;9.544;2022-07-10T02:05:05;14.60;99.90
1468;DHT22;727;48.892;9.544;2022-07-10T02:07:31;14.70;99.90
1468;DHT22;727;48.892;9.544;2022-07-10T02:09:58;14.70;99.90
1468;DHT22;727;48.892;9.544;2022-07-10T02:12:26;14.70;99.90
1468;DHT22;727;48.892;9.544;2022-07-10T02:14:53;14.80;99.90
1468;DHT22;727;48.892;9.544;2022-07-10T02:17:22;14.80;99.90
1468;DHT22;727;48.892;9.544;2022-07-10T02:19:48;14.90;99.90
1468;DHT22;727;48.892;9.544;2022-07-10T02:22:15;15.00;99.90
1468;DHT22;727;48.892;9.544;2022-07-10T02:24:42;15.00;99.90
1468;DHT22;727;48.892;9.544;2022-07-10T02:27:08;15.10;99.90
1468;DHT22;727;48.892;9.544;2022-07-10T02:29:36;15.20;99.90
1468;DHT22;727;48.892;9.544;2022-07-10T02:32:04;15.20;99.90
1468;DHT22;727;48.892;9.544;2022-07-10T02:34:31;15.20;99.90
1468;DHT22;727;48.892;9.544;2022-07-10T02:36:58;15.20;99.90
1468;DHT22;727;48.892;9.544;2022-07-10T02:39:24;15.20;99.90
1468;DHT22;727;48.892;9.544;2022-07-10T02:41:51;15.20;99.90
1468;DHT22;727;48.892;9.544;2022-07-10T02:44:17;15.20;99.90
1468;DHT22;727;48.892;9.544;2022-07-10T02:46:45;15.20;99.90
1468;DHT22;727;48.892;9.544;2022-07-10T02:49:12;15.20;99.90
1468;DHT22;727;48.892;9.544;2022-07-10T02:51:39;15.10;99.90
1468;DHT22;727;48.892;9.544;2022-07-10T02:54:06;15.10;99.90
1468;DHT22;727;48.892;9.544;2022-07-10T02:56:33;15.10;99.90
1468;DHT22;727;48.892;9.544;2022-07-10T02:59:01;15.00;99.90
1468;DHT22;727;48.892;9.544;2022-07-10T03:01:28;15.00;99.90
1468;DHT22;727;48.892;9.544;2022-07-10T03:03:56;15.00;99.90
1468;DHT22;727;48.892;9.544;2022-07-10T03:06:22;15.00;99.90
1468;DHT22;727;48.892;9.544;2022-07-10T03:08:49;15.00;99.90
1468;DHT22;727;48.892;9.544;2022-07-10T03:11:16;14.90;99.90
1468;DHT22;727;48.892;9.544;2022-07-10T03:13:42;14.90;99.90
1468;DHT22;727;48.892;9.544;2022-07-10T03:16:09;14.80;99.90
1468;DHT22;727;48.892;9.544;2022-07-10T03:18:36;14.80;99.90
1468;DHT22;727;48.892;9.544;2022-07-10T03:21:04;14.70;99.90
1468;DHT22;727;48.892;9.544;2022-07-10T03:23:31;14.70;99.90
1468;DHT22;727;48.892;9.544;2022-07-10T03:25:57;14.70;99.90
1468;DHT22;727;48.892;9.544;2022-07-10T03:28:24;14.60;99.90
1468;DHT22;727;48.892;9.544;2022-07-10T03:30:51;14.60;99.90
1468;DHT22;727;48.892;9.544;2022-07-10T03:33:17;14.60;99.90
1468;DHT22;727;48.892;9.544;2022-07-10T03:35:44;14.60;99.90
1468;DHT22;727;48.892;9.544;2022-07-10T03:38:12;14.60;99.90
1468;DHT22;727;48.892;9.544;2022-07-10T03:40:39;14.70;99.90
1468;DHT22;727;48.892;9.544;2022-07-10T03:43:05;14.70;99.90
1468;DHT22;727;48.892;9.544;2022-07-10T03:45:32;14.80;99.90
1468;DHT22;727;48.892;9.544;2022-07-10T03:47:58;14.80;99.90
1468;DHT22;727;48.892;9.544;2022-07-10T03:50:25;14.90;99.90
1468;DHT22;727;48.892;9.544;2022-07-10T03:52:52;15.00;99.90
1468;DHT22;727;48.892;9.544;2022-07-10T03:55:20;15.10;99.90
1468;DHT22;727;48.892;9.544;2022-07-10T03:57:46;15.20;99.90
1468;DHT22;727;48.892;9.544;2022-07-10T04:00:23;15.40;99.90
1468;DHT22;727;48.892;9.544;2022-07-10T04:02:56;15.50;99.90
1468;DHT22;727;48.892;9.544;2022-07-10T04:05:24;15.60;99.90
1468;DHT22;727;48.892;9.544;2022-07-10T04:07:50;15.70;99.90
1468;DHT22;727;48.892;9.544;2022-07-10T04:10:17;15.80;99.90
1468;DHT22;727;48.892;9.544;2022-07-10T04:12:46;15.90;99.90
1468;DHT22;727;48.892;9.544;2022-07-10T04:15:13;15.90;99.90
1468;DHT22;727;48.892;9.544;2022-07-10T04:17:39;15.90;99.90
1468;DHT22;727;48.892;9.544;2022-07-10T04:20:07;15.90;99.90
1468;DHT22;727;48.892;9.544;2022-07-10T04:22:34;16.00;99.90
1468;DHT22;727;48.892;9.544;2022-07-10T04:25:01;16.10;99.90
1468;DHT22;727;48.892;9.544;2022-07-10T04:27:28;16.10;99.90
1468;DHT22;727;48.892;9.544;2022-07-10T04:29:56;16.20;99.90
1468;DHT22;727;48.892;9.544;2022-07-10T04:32:22;16.30;99.90
1468;DHT22;727;48.892;9.544;2022-07-10T04:34:49;16.30;99.90
1468;DHT22;727;48.892;9.544;2022-07-10T04:37:16;16.30;99.90
1468;DHT22;727;48.892;9.544;2022-07-10T04:39:43;16.40;99.90
1468;DHT22;727;48.892;9.544;2022-07-10T04:42:09;16.40;99.90
1468;DHT22;727;48.892;9.544;2022-07-10T04:44:37;16.40;99.90
1468;DHT22;727;48.892;9.544;2022-07-10T04:47:06;16.40;99.90
1468;DHT22;727;48.892;9.544;2022-07-10T04:49:33;16.40;99.90
1468;DHT22;727;48.892;9.544;2022-07-10T04:52:00;16.50;99.90
1468;DHT22;727;48.892;9.544;2022-07-10T04:54:27;16.50;99.90
1468;DHT22;727;48.892;9.544;2022-07-10T04:56:53;16.60;99.90
1468;DHT22;727;48.892;9.544;2022-07-10T04:59:20;16.70;99.90
1468;DHT22;727;48.892;9.544;2022-07-10T05:01:46;16.80;99.90
1468;DHT22;727;48.892;9.544;2022-07-10T05:04:14;16.80;99.90
1468;DHT22;727;48.892;9.544;2022-07-10T05:06:41;16.80;99.90
1468;DHT22;727;48.892;9.544;2022-07-10T05:09:08;17.10;99.90
1468;DHT22;727;48.892;9.544;2022-07-10T05:11:34;17.30;99.90
1468;DHT22;727;48.892;9.544;2022-07-10T05:14:01;17.60;99.90
1468;DHT22;727;48.892;9.544;2022-07-10T05:16:28;18.20;99.90
1468;DHT22;727;48.892;9.544;2022-07-10T05:18:55;18.50;99.20
1468;DHT22;727;48.892;9.544;2022-07-10T05:21:23;18.70;98.50
1468;DHT22;727;48.892;9.544;2022-07-10T05:23:50;20.00;96.50
1468;DHT22;727;48.892;9.544;2022-07-10T05:26:17;21.00;92.50
1468;DHT22;727;48.892;9.544;2022-07-10T05:28:44;20.60;91.50
1468;DHT22;727;48.892;9.544;2022-07-10T05:31:10;19.80;92.20
1468;DHT22;727;48.892;9.544;2022-07-10T05:33:37;19.30;92.80
1468;DHT22;727;48.892;9.544;2022-07-10T05:36:06;19.00;93.10
1468;DHT22;727;48.892;9.544;2022-07-10T05:38:34;18.70;93.80
1468;DHT22;727;48.892;9.544;2022-07-10T05:41:01;18.60;94.30
1468;DHT22;727;48.892;9.544;2022-07-10T05:43:28;18.50;94.00
1468;DHT22;727;48.892;9.544;2022-07-10T05:45:55;18.40;94.60
1468;DHT22;727;48.892;9.544;2022-07-10T05:48:22;18.20;95.20
1468;DHT22;727;48.892;9.544;2022-07-10T05:50:48;18.10;95.40
1468;DHT22;727;48.892;9.544;2022-07-10T05:53:15;17.80;96.00
1468;DHT22;727;48.892;9.544;2022-07-10T05:55:46;17.80;96.70
1468;DHT22;727;48.892;9.544;2022-07-10T05:58:12;17.70;96.70
1468;DHT22;727;48.892;9.544;2022-07-10T06:00:39;17.60;97.20
1468;DHT22;727;48.892;9.544;2022-07-10T06:03:08;17.40;97.50
1468;DHT22;727;48.892;9.544;2022-07-10T06:05:34;17.40;97.80
1468;DHT22;727;48.892;9.544;2022-07-10T06:08:01;17.30;98.30
1468;DHT22;727;48.892;9.544;2022-07-10T06:10:28;17.20;98.60
1468;DHT22;727;48.892;9.544;2022-07-10T06:12:56;17.10;98.90
1468;DHT22;727;48.892;9.544;2022-07-10T06:15:23;17.20;99.00
1468;DHT22;727;48.892;9.544;2022-07-10T06:17:49;17.00;98.80
1468;DHT22;727;48.892;9.544;2022-07-10T06:20:16;17.00;98.60
1468;DHT22;727;48.892;9.544;2022-07-10T06:22:43;17.00;98.70
1468;DHT22;727;48.892;9.544;2022-07-10T06:25:10;17.20;99.20
1468;DHT22;727;48.892;9.544;2022-07-10T06:27:37;17.40;98.80
1468;DHT22;727;48.892;9.544;2022-07-10T06:30:06;17.70;97.80
1468;DHT22;727;48.892;9.544;2022-07-10T06:32:33;17.90;97.80
1468;DHT22;727;48.892;9.544;2022-07-10T06:34:59;18.50;96.70
1468;DHT22;727;48.892;9.544;2022-07-10T06:37:27;18.90;94.80
1468;DHT22;727;48.892;9.544;2022-07-10T06:39:53;18.90;94.70
1468;DHT22;727;48.892;9.544;2022-07-10T06:42:20;19.00;94.70
1468;DHT22;727;48.892;9.544;2022-07-10T06:44:47;19.00;92.90
1468;DHT22;727;48.892;9.544;2022-07-10T06:47:17;18.90;93.30
1468;DHT22;727;48.892;9.544;2022-07-10T06:50:02;18.90;93.30
1468;DHT22;727;48.892;9.544;2022-07-10T06:52:31;19.10;93.80
1468;DHT22;727;48.892;9.544;2022-07-10T06:54:58;19.20;92.70
1468;DHT22;727;48.892;9.544;2022-07-10T06:57:24;19.00;91.90
1468;DHT22;727;48.892;9.544;2022-07-10T06:59:51;18.90;90.70
1468;DHT22;727;48.892;9.544;2022-07-10T07:02:19;18.80;90.80
1468;DHT22;727;48.892;9.544;2022-07-10T07:04:46;18.70;90.70
1468;DHT22;727;48.892;9.544;2022-07-10T07:07:13;18.40;90.20
1468;DHT22;727;48.892;9.544;2022-07-10T07:09:40;18.20;90.70
1468;DHT22;727;48.892;9.544;2022-07-10T07:12:08;18.10;90.90
1468;DHT22;727;48.892;9.544;2022-07-10T07:14:35;18.00;90.80
1468;DHT22;727;48.892;9.544;2022-07-10T07:17:03;18.10;90.90
1468;DHT22;727;48.892;9.544;2022-07-10T07:19:33;18.30;90.90
1468;DHT22;727;48.892;9.544;2022-07-10T07:22:22;18.50;90.20
1468;DHT22;727;48.892;9.544;2022-07-10T07:25:07;18.50;90.10
1468;DHT22;727;48.892;9.544;2022-07-10T07:27:36;18.70;90.00
1468;DHT22;727;48.892;9.544;2022-07-10T07:30:04;18.90;89.60
1468;DHT22;727;48.892;9.544;2022-07-10T07:32:31;19.10;88.10
1468;DHT22;727;48.892;9.544;2022-07-10T07:35:00;19.10;87.70
1468;DHT22;727;48.892;9.544;2022-07-10T07:37:37;19.30;87.10
1468;DHT22;727;48.892;9.544;2022-07-10T07:40:05;19.50;86.50
1468;DHT22;727;48.892;9.544;2022-07-10T07:42:32;19.40;85.30
1468;DHT22;727;48.892;9.544;2022-07-10T07:44:59;19.50;86.80
1468;DHT22;727;48.892;9.544;2022-07-10T07:47:26;19.30;85.60
1468;DHT22;727;48.892;9.544;2022-07-10T07:49:53;18.90;85.80
1468;DHT22;727;48.892;9.544;2022-07-10T07:52:21;18.80;87.40
1468;DHT22;727;48.892;9.544;2022-07-10T07:54:48;18.90;88.30
1468;DHT22;727;48.892;9.544;2022-07-10T07:57:16;19.10;87.80
1468;DHT22;727;48.892;9.544;2022-07-10T07:59:43;19.10;85.90
1468;DHT22;727;48.892;9.544;2022-07-10T08:02:09;19.10;86.60
1468;DHT22;727;48.892;9.544;2022-07-10T08:04:36;19.10;86.30
1468;DHT22;727;48.892;9.544;2022-07-10T08:07:03;19.10;86.50
1468;DHT22;727;48.892;9.544;2022-07-10T08:09:31;19.30;86.00
1468;DHT22;727;48.892;9.544;2022-07-10T08:11:58;19.30;86.00
1468;DHT22;727;48.892;9.544;2022-07-10T08:14:25;19.20;85.60
1468;DHT22;727;48.892;9.544;2022-07-10T08:16:51;19.20;85.10
1468;DHT22;727;48.892;9.544;2022-07-10T08:19:18;19.30;84.70
1468;DHT22;727;48.892;9.544;2022-07-10T08:21:44;19.60;82.80
1468;DHT22;727;48.892;9.544;2022-07-10T08:24:11;19.50;81.40
1468;DHT22;727;48.892;9.544;2022-07-10T08:26:41;19.40;82.20
1468;DHT22;727;48.892;9.544;2022-07-10T08:29:08;19.50;80.80
1468;DHT22;727;48.892;9.544;2022-07-10T08:31:35;19.60;80.80
1468;DHT22;727;48.892;9.544;2022-07-10T08:34:02;19.80;79.90
1468;DHT22;727;48.892;9.544;2022-07-10T08:36:29;20.00;79.20
1468;DHT22;727;48.892;9.544;2022-07-10T08:38:56;20.20;77.20
1468;DHT22;727;48.892;9.544;2022-07-10T08:41:26;20.10;78.40
1468;DHT22;727;48.892;9.544;2022-07-10T08:43:55;20.30;78.10
1468;DHT22;727;48.892;9.544;2022-07-10T08:46:22;20.60;79.50
1468;DHT22;727;48.892;9.544;2022-07-10T08:48:53;21.10;76.30
1468;DHT22;727;48.892;9.544;2022-07-10T08:51:24;21.60;74.60
1468;DHT22;727;48.892;9.544;2022-07-10T08:53:57;22.00;73.10
1468;DHT22;727;48.892;9.544;2022-07-10T08:56:26;22.30;72.70
1468;DHT22;727;48.892;9.544;2022-07-10T08:58:55;22.70;69.00
1468;DHT22;727;48.892;9.544;2022-07-10T09:01:22;22.40;69.40
1468;DHT22;727;48.892;9.544;2022-07-10T09:03:49;22.10;70.70
1468;DHT22;727;48.892;9.544;2022-07-10T09:06:16;21.60;70.50
1468;DHT22;727;48.892;9.544;2022-07-10T09:08:58;21.60;72.80
1468;DHT22;727;48.892;9.544;2022-07-10T09:11:25;21.70;70.50
1468;DHT22;727;48.892;9.544;2022-07-10T09:13:57;21.90;69.20
1468;DHT22;727;48.892;9.544;2022-07-10T09:16:24;22.00;69.90
1468;DHT22;727;48.892;9.544;2022-07-10T09:18:52;21.90;69.70
1468;DHT22;727;48.892;9.544;2022-07-10T09:21:19;22.00;69.20
1468;DHT22;727;48.892;9.544;2022-07-10T09:23:46;22.10;68.30
1468;DHT22;727;48.892;9.544;2022-07-10T09:26:13;22.00;66.80
1468;DHT22;727;48.892;9.544;2022-07-10T09:28:40;21.60;67.90
1468;DHT22;727;48.892;9.544;2022-07-10T09:31:08;21.70;68.50
1468;DHT22;727;48.892;9.544;2022-07-10T09:33:35;21.70;67.80
1468;DHT22;727;48.892;9.544;2022-07-10T09:36:04;21.80;67.50
1468;DHT22;727;48.892;9.544;2022-07-10T09:38:50;22.50;66.50
1468;DHT22;727;48.892;9.544;2022-07-10T09:41:18;22.70;64.50
1468;DHT22;727;48.892;9.544;2022-07-10T09:43:46;22.20;65.80
1468;DHT22;727;48.892;9.544;2022-07-10T09:46:15;21.80;66.90
1468;DHT22;727;48.892;9.544;2022-07-10T09:48:42;21.60;67.50
1468;DHT22;727;48.892;9.544;2022-07-10T09:51:10;21.50;68.60
1468;DHT22;727;48.892;9.544;2022-07-10T09:53:38;21.70;66.50
1468;DHT22;727;48.892;9.544;2022-07-10T09:56:07;22.10;65.60
1468;DHT22;727;48.892;9.544;2022-07-10T09:58:34;22.70;64.10
1468;DHT22;727;48.892;9.544;2022-07-10T10:01:02;23.00;64.60
1468;DHT22;727;48.892;9.544;2022-07-10T10:03:33;23.50;62.90
1468;DHT22;727;48.892;9.544;2022-07-10T10:06:03;23.20;60.90
1468;DHT22;727;48.892;9.544;2022-07-10T10:08:32;22.60;62.70
1468;DHT22;727;48.892;9.544;2022-07-10T10:11:01;22.60;63.30
1468;DHT22;727;48.892;9.544;2022-07-10T10:13:29;22.70;63.90
1468;DHT22;727;48.892;9.544;2022-07-10T10:15:57;22.50;65.00
1468;DHT22;727;48.892;9.544;2022-07-10T10:18:25;22.60;65.30
1468;DHT22;727;48.892;9.544;2022-07-10T10:20:54;23.00;63.50
1468;DHT22;727;48.892;9.544;2022-07-10T10:23:22;23.40;61.60
1468;DHT22;727;48.892;9.544;2022-07-10T10:25:51;23.10;60.70
1468;DHT22;727;48.892;9.544;2022-07-10T10:28:20;23.00;59.70
1468;DHT22;727;48.892;9.544;2022-07-10T10:30:50;23.20;59.40
1468;DHT22;727;48.892;9.544;2022-07-10T10:33:42;23.40;59.10
1468;DHT22;727;48.892;9.544;2022-07-10T10:36:13;23.50;59.10
1468;DHT22;727;48.892;9.544;2022-07-10T10:39:00;23.90;58.20
1468;DHT22;727;48.892;9.544;2022-07-10T10:41:28;24.40;57.80
1468;DHT22;727;48.892;9.544;2022-07-10T10:44:21;23.80;57.40
1468;DHT22;727;48.892;9.544;2022-07-10T10:47:04;23.70;56.80
1468;DHT22;727;48.892;9.544;2022-07-10T10:49:49;23.90;58.00
1468;DHT22;727;48.892;9.544;2022-07-10T10:52:18;24.10;56.20
1468;DHT22;727;48.892;9.544;2022-07-10T10:55:05;24.20;56.50
1468;DHT22;727;48.892;9.544;2022-07-10T10:57:41;23.70;56.10
1468;DHT22;727;48.892;9.544;2022-07-10T11:00:34;23.10;58.00
1468;DHT22;727;48.892;9.544;2022-07-10T11:03:16;22.40;58.70
1468;DHT22;727;48.892;9.544;2022-07-10T11:05:44;22.20;59.50
1468;DHT22;727;48.892;9.544;2022-07-10T11:08:13;22.80;59.30
1468;DHT22;727;48.892;9.544;2022-07-10T11:10:41;23.20;58.40
1468;DHT22;727;48.892;9.544;2022-07-10T11:13:09;23.50;57.50
1468;DHT22;727;48.892;9.544;2022-07-10T11:15:37;24.00;55.90
1468;DHT22;727;48.892;9.544;2022-07-10T11:18:05;24.10;55.50
1468;DHT22;727;48.892;9.544;2022-07-10T11:20:33;23.60;56.30
1468;DHT22;727;48.892;9.544;2022-07-10T11:26:19;23.80;57.40
1468;DHT22;727;48.892;9.544;2022-07-10T11:28:50;23.90;57.10
1468;DHT22;727;48.892;9.544;2022-07-10T11:31:17;23.70;56.10
1468;DHT22;727;48.892;9.544;2022-07-10T11:33:45;23.40;56.10
1468;DHT22;727;48.892;9.544;2022-07-10T11:36:14;23.20;56.80
1468;DHT22;727;48.892;9.544;2022-07-10T11:38:43;23.10;57.10
1468;DHT22;727;48.892;9.544;2022-07-10T11:41:15;22.90;57.40
1468;DHT22;727;48.892;9.544;2022-07-10T11:43:47;22.70;58.10
1468;DHT22;727;48.892;9.544;2022-07-10T11:46:14;22.70;58.60
1468;DHT22;727;48.892;9.544;2022-07-10T11:48:41;22.90;58.10
1468;DHT22;727;48.892;9.544;2022-07-10T11:51:20;22.90;58.00
1468;DHT22;727;48.892;9.544;2022-07-10T11:53:55;23.20;57.00
1468;DHT22;727;48.892;9.544;2022-07-10T11:56:24;23.40;56.40
1468;DHT22;727;48.892;9.544;2022-07-10T11:58:58;23.00;57.80
1468;DHT22;727;48.892;9.544;2022-07-10T12:01:26;22.80;57.40
1468;DHT22;727;48.892;9.544;2022-07-10T12:03:58;22.80;57.30
1468;DHT22;727;48.892;9.544;2022-07-10T12:06:25;23.40;56.70
1468;DHT22;727;48.892;9.544;2022-07-10T12:08:53;23.90;55.40
1468;DHT22;727;48.892;9.544;2022-07-10T12:11:21;24.30;55.00
1468;DHT22;727;48.892;9.544;2022-07-10T12:13:51;24.60;52.90
1468;DHT22;727;48.892;9.544;2022-07-10T12:16:19;24.40;52.90
1468;DHT22;727;48.892;9.544;2022-07-10T12:18:46;23.50;56.10
1468;DHT22;727;48.892;9.544;2022-07-10T12:21:14;23.30;56.30
1468;DHT22;727;48.892;9.544;2022-07-10T12:23:43;23.40;56.10
1468;DHT22;727;48.892;9.544;2022-07-10T12:26:12;23.30;56.50
1468;DHT22;727;48.892;9.544;2022-07-10T12:28:53;23.80;55.50
1468;DHT22;727;48.892;9.544;2022-07-10T12:31:24;23.60;55.70
1468;DHT22;727;48.892;9.544;2022-07-10T12:33:53;23.60;54.90
1468;DHT22;727;48.892;9.544;2022-07-10T12:36:23;23.90;54.40
1468;DHT22;727;48.892;9.544;2022-07-10T12:38:55;23.90;54.20
1468;DHT22;727;48.892;9.544;2022-07-10T12:41:23;23.60;54.30
1468;DHT22;727;48.892;9.544;2022-07-10T12:43:53;23.40;54.00
1468;DHT22;727;48.892;9.544;2022-07-10T12:46:21;23.70;54.20
1468;DHT22;727;48.892;9.544;2022-07-10T12:49:15;23.80;54.30
1468;DHT22;727;48.892;9.544;2022-07-10T12:51:56;24.10;53.30
1468;DHT22;727;48.892;9.544;2022-07-10T12:54:30;24.40;53.00
1468;DHT22;727;48.892;9.544;2022-07-10T12:56:57;24.30;52.90
1468;DHT22;727;48.892;9.544;2022-07-10T12:59:27;24.20;53.90
1468;DHT22;727;48.892;9.544;2022-07-10T13:01:54;24.10;54.30
1468;DHT22;727;48.892;9.544;2022-07-10T13:04:23;24.10;54.30
1468;DHT22;727;48.892;9.544;2022-07-10T13:06:52;24.50;53.50
1468;DHT22;727;48.892;9.544;2022-07-10T13:09:24;24.80;52.50
1468;DHT22;727;48.892;9.544;2022-07-10T13:11:51;24.90;52.30
1468;DHT22;727;48.892;9.544;2022-07-10T13:14:18;24.90;53.30
1468;DHT22;727;48.892;9.544;2022-07-10T13:16:46;24.80;51.70
1468;DHT22;727;48.892;9.544;2022-07-10T13:19:13;24.50;51.30
1468;DHT22;727;48.892;9.544;2022-07-10T13:21:40;23.90;52.30
1468;DHT22;727;48.892;9.544;2022-07-10T13:24:08;23.70;53.20
1468;DHT22;727;48.892;9.544;2022-07-10T13:26:37;23.70;54.40
1468;DHT22;727;48.892;9.544;2022-07-10T13:29:04;23.70;53.40
1468;DHT22;727;48.892;9.544;2022-07-10T13:31:32;23.70;53.70
1468;DHT22;727;48.892;9.544;2022-07-10T13:34:00;24.00;53.40
1468;DHT22;727;48.892;9.544;2022-07-10T13:36:28;24.40;52.70
1468;DHT22;727;48.892;9.544;2022-07-10T13:38:55;23.90;53.20
1468;DHT22;727;48.892;9.544;2022-07-10T13:41:23;23.50;55.10
1468;DHT22;727;48.892;9.544;2022-07-10T13:43:49;23.40;54.80
1468;DHT22;727;48.892;9.544;2022-07-10T13:46:16;23.70;54.60
1468;DHT22;727;48.892;9.544;2022-07-10T13:48:43;24.00;53.50
1468;DHT22;727;48.892;9.544;2022-07-10T13:51:11;24.00;52.60
1468;DHT22;727;48.892;9.544;2022-07-10T13:53:37;24.20;51.90
1468;DHT22;727;48.892;9.544;2022-07-10T13:56:05;24.00;52.40
1468;DHT22;727;48.892;9.544;2022-07-10T13:58:34;23.50;52.90
1468;DHT22;727;48.892;9.544;2022-07-10T14:01:02;23.00;53.80
1468;DHT22;727;48.892;9.544;2022-07-10T14:03:29;23.10;54.40
1468;DHT22;727;48.892;9.544;2022-07-10T14:05:56;23.70;53.70
1468;DHT22;727;48.892;9.544;2022-07-10T14:08:24;23.80;53.50
1468;DHT22;727;48.892;9.544;2022-07-10T14:10:51;23.80;52.60
1468;DHT22;727;48.892;9.544;2022-07-10T14:13:18;24.00;54.60
1468;DHT22;727;48.892;9.544;2022-07-10T14:15:45;24.30;54.10
1468;DHT22;727;48.892;9.544;2022-07-10T14:18:11;24.70;52.40
1468;DHT22;727;48.892;9.544;2022-07-10T14:20:38;24.60;53.10
1468;DHT22;727;48.892;9.544;2022-07-10T14:23:23;24.30;51.90
1468;DHT22;727;48.892;9.544;2022-07-10T14:25:50;24.00;51.00
1468;DHT22;727;48.892;9.544;2022-07-10T14:28:18;23.50;52.30
1468;DHT22;727;48.892;9.544;2022-07-10T14:30:44;23.50;52.40
1468;DHT22;727;48.892;9.544;2022-07-10T14:33:11;23.70;52.10
1468;DHT22;727;48.892;9.544;2022-07-10T14:35:39;23.90;51.70
1468;DHT22;727;48.892;9.544;2022-07-10T14:38:05;24.50;51.50
1468;DHT22;727;48.892;9.544;2022-07-10T14:40:34;24.60;51.90
1468;DHT22;727;48.892;9.544;2022-07-10T14:43:00;24.20;52.00
1468;DHT22;727;48.892;9.544;2022-07-10T14:45:27;24.10;52.60
1468;DHT22;727;48.892;9.544;2022-07-10T14:47:54;24.20;52.50
1468;DHT22;727;48.892;9.544;2022-07-10T14:50:21;24.30;51.90
1468;DHT22;727;48.892;9.544;2022-07-10T14:52:48;24.50;52.00
1468;DHT22;727;48.892;9.544;2022-07-10T14:55:15;24.40;51.00
1468;DHT22;727;48.892;9.544;2022-07-10T14:57:43;24.10;52.20
1468;DHT22;727;48.892;9.544;2022-07-10T15:00:10;23.60;53.00
1468;DHT22;727;48.892;9.544;2022-07-10T15:02:37;23.50;53.40
1468;DHT22;727;48.892;9.544;2022-07-10T15:05:04;23.60;52.70
1468;DHT22;727;48.892;9.544;2022-07-10T15:07:31;23.20;53.00
1468;DHT22;727;48.892;9.544;2022-07-10T15:09:58;22.80;53.70
1468;DHT22;727;48.892;9.544;2022-07-10T15:12:24;22.60;53.50
1468;DHT22;727;48.892;9.544;2022-07-10T15:14:52;22.30;55.80
1468;DHT22;727;48.892;9.544;2022-07-10T15:17:19;22.30;55.50
1468;DHT22;727;48.892;9.544;2022-07-10T15:19:46;22.20;54.80
1468;DHT22;727;48.892;9.544;2022-07-10T15:22:12;22.00;55.10
1468;DHT22;727;48.892;9.544;2022-07-10T15:24:39;22.10;55.40
1468;DHT22;727;48.892;9.544;2022-07-10T15:27:09;22.40;54.70
1468;DHT22;727;48.892;9.544;2022-07-10T15:29:35;22.70;55.90
1468;DHT22;727;48.892;9.544;2022-07-10T15:32:04;23.00;53.10
1468;DHT22;727;48.892;9.544;2022-07-10T15:34:31;23.00;53.70
1468;DHT22;727;48.892;9.544;2022-07-10T15:36:58;23.20;53.70
1468;DHT22;727;48.892;9.544;2022-07-10T15:39:24;23.40;52.90
1468;DHT22;727;48.892;9.544;2022-07-10T15:41:51;23.50;52.10
1468;DHT22;727;48.892;9.544;2022-07-10T15:44:18;23.50;51.60
1468;DHT22;727;48.892;9.544;2022-07-10T15:46:44;23.40;52.70
1468;DHT22;727;48.892;9.544;2022-07-10T15:49:12;23.10;52.20
1468;DHT22;727;48.892;9.544;2022-07-10T15:51:39;23.20;52.70
1468;DHT22;727;48.892;9.544;2022-07-10T15:54:06;23.10;52.80
1468;DHT22;727;48.892;9.544;2022-07-10T15:56:32;23.10;52.10
1468;DHT22;727;48.892;9.544;2022-07-10T15:58:59;23.20;52.40
1468;DHT22;727;48.892;9.544;2022-07-10T16:01:25;23.20;52.40
1468;DHT22;727;48.892;9.544;2022-07-10T16:03:52;23.20;53.30
1468;DHT22;727;48.892;9.544;2022-07-10T16:06:20;23.40;52.80
1468;DHT22;727;48.892;9.544;2022-07-10T16:08:47;23.10;52.00
1468;DHT22;727;48.892;9.544;2022-07-10T16:11:14;22.80;53.20
1468;DHT22;727;48.892;9.544;2022-07-10T16:13:43;22.90;52.20
1468;DHT22;727;48.892;9.544;2022-07-10T16:16:09;22.90;52.90
1468;DHT22;727;48.892;9.544;2022-07-10T16:18:36;22.90;52.50
1468;DHT22;727;48.892;9.544;2022-07-10T16:21:03;22.90;53.10
1468;DHT22;727;48.892;9.544;2022-07-10T16:23:31;22.70;53.60
1468;DHT22;727;48.892;9.544;2022-07-10T16:25:59;22.40;54.60
1468;DHT22;727;48.892;9.544;2022-07-10T16:28:31;22.30;54.70